Flight Track Log - Related Links

Times and Time Zones

All times are in EDT time to prevent confusion due to time zone crossing. See the SWA1969 flight status page for this flight to view local times or setup timezone preferences in your user account.

Time Position Orientation Groundspeed Altitude Reporting Facility
EDT Latitude Longitude Course Direction KTS MPH feet Rate Location/Type
Mon 09:05:16 AM 32.8167 -96.8000 90° East 185 213 2,500  Level Dallas / Fort Worth TRACON
Mon 09:06:16 AM 32.8167 -96.7500 90° East 244 281 5,200 2,800 Climbing Dallas / Fort Worth TRACON
Mon 09:07:16 AM 32.8833 -96.7500 360° North 269 310 8,100 2,769 Climbing Dallas / Fort Worth TRACON
Mon 09:09:18 AM 33.0325 -96.8361 334° Northwest 317 365 13,600 2,835 Climbing Fort Worth Center
Mon 09:10:18 AM 33.1161 -96.8900 332° Northwest 331 381 16,700 2,750 Climbing Fort Worth Center
Mon 09:11:18 AM 33.2144 -96.9542 331° Northwest 353 406 19,100 2,650 Climbing Fort Worth Center
Mon 09:12:18 AM 33.3044 -97.0133 331° Northwest 362 417 22,000 2,550 Climbing Fort Worth Center
Mon 09:13:18 AM 33.3986 -97.0750 331° Northwest 375 432 24,200 1,900 Climbing Fort Worth Center
Mon 09:14:18 AM 33.5072 -97.1019 348° North 380 437 25,800 1,750 Climbing Fort Worth Center
Mon 09:15:18 AM 33.6075 -97.0917 North 407 468 27,700 1,700 Climbing Fort Worth Center
Mon 09:16:18 AM 33.7264 -97.0764 North 412 474 29,200 1,700 Climbing Fort Worth Center
Mon 09:17:18 AM 33.8431 -97.0608 North 418 481 31,100 1,700 Climbing Fort Worth Center
Mon 09:18:18 AM 33.9600 -97.0453 North 423 487 32,600 1,450 Climbing Fort Worth Center
Mon 09:19:18 AM 34.0767 -97.0322 North 423 487 34,000 1,150 Climbing Fort Worth Center
Mon 09:20:18 AM 34.1872 -97.0169 North 413 475 34,900 900 Climbing Fort Worth Center
Mon 09:21:18 AM 34.3061 -97.0036 North 413 475 35,800 900 Climbing Fort Worth Center
Mon 09:22:18 AM 34.4292 -96.9628 15° North 429 494 36,700 600 Climbing Fort Worth Center
Mon 09:23:18 AM 34.5417 -96.8892 28° Northeast 439 505 37,000 150 Climbing Fort Worth Center
Mon 09:24:18 AM 34.6539 -96.8178 28° Northeast 452 520 37,000  Level Fort Worth Center
Mon 09:25:18 AM 34.7661 -96.7436 28° Northeast 452 520 37,000  Level Fort Worth Center
Mon 09:26:18 AM 34.8806 -96.6694 28° Northeast 452 520 37,000  Level Fort Worth Center
Mon 09:27:18 AM 34.9906 -96.5950 29° Northeast 452 520 37,000  Level Fort Worth Center
Mon 09:28:18 AM 35.1006 -96.5203 29° Northeast 452 520 37,000  Level Fort Worth Center
Mon 09:29:18 AM 35.2147 -96.4481 27° Northeast 452 520 37,000  Level Fort Worth Center
Mon 09:31:28 AM 35.4517 -96.2886 29° Northeast 452 520 37,000  Level Kansas City Center
Mon 09:32:28 AM 35.5622 -96.2158 28° Northeast 452 520 37,000  Level Kansas City Center
Mon 09:34:00 AM 35.7247 -96.1537 12° North  Level Estimated
Mon 09:34:31 AM 35.7886 -96.0639 12° North 451 519 37,000  Level Kansas City Center
Mon 09:35:34 AM 35.8989 -95.9906 28° Northeast 449 517 37,000  Level Kansas City Center
Mon 09:36:35 AM 36.0097 -95.9167 28° Northeast 450 518 37,000  Level Kansas City Center
Mon 09:37:38 AM 36.1197 -95.8419 29° Northeast 450 518 37,000  Level Kansas City Center
Mon 09:38:39 AM 36.2353 -95.7839 22° Northeast 444 511 37,000  Level Kansas City Center
Mon 09:39:42 AM 36.3758 -95.7644 North 422 486 37,000  Level Kansas City Center
Mon 09:40:43 AM 36.4797 -95.7508 North 422 486 37,000  Level Kansas City Center
Mon 09:41:43 AM 36.6136 -95.7328 North 422 486 37,000  Level Kansas City Center
Mon 09:42:45 AM 36.7311 -95.7161 North 421 484 37,000  Level Kansas City Center
Mon 09:43:48 AM 36.8478 -95.7008 North 419 482 37,000  Level Kansas City Center
Mon 09:44:50 AM 36.9650 -95.6867 North 419 482 37,000  Level Kansas City Center
Mon 09:45:50 AM 37.0814 -95.6706 North 419 482 37,000  Level Kansas City Center
Mon 09:46:52 AM 37.1986 -95.6547 North 421 484 37,000  Level Kansas City Center
Mon 09:47:53 AM 37.3144 -95.6386 North 419 482 37,000  Level Kansas City Center
Mon 09:48:56 AM 37.4308 -95.6217 North 418 481 37,000  Level Kansas City Center
Mon 09:49:57 AM 37.5697 -95.6022 North 417 480 37,000  Level Kansas City Center
Mon 09:51:00 AM 37.6869 -95.5853 North 420 483 37,000  Level Kansas City Center
Mon 09:52:01 AM 37.8056 -95.5669 North 426 490 37,000 -1,091 Level Kansas City Center
Mon 09:53:01 AM 37.9239 -95.5508 North 428 493 34,800 -3,000 Descending Kansas City Center
Mon 09:54:05 AM 38.0489 -95.5336 North 437 503 30,800 -3,360 Descending Kansas City Center
Mon 09:55:06 AM 38.1653 -95.5158 North 441 507 27,800 -2,557 Descending Kansas City Center
Mon 09:56:07 AM 38.2942 -95.4967 North 418 481 25,600 -1,887 Descending Kansas City Center
Mon 09:57:10 AM 38.3981 -95.4828 North 395 455 23,900 -1,776 Descending Kansas City Center
Mon 09:58:12 AM 38.5144 -95.4650 North 377 434 21,900 -1,742 Descending Kansas City Center
Mon 09:59:14 AM 38.6111 -95.4492 North 368 423 20,300 -1,645 Descending Kansas City Center
Mon 10:00:16 AM 38.7200 -95.4322 North 351 404 18,500 -1,659 Descending Kansas City Center
Mon 10:01:17 AM 38.8114 -95.4100 11° North 350 403 16,900 -1,672 Descending Kansas City Center
Mon 10:02:18 AM 38.8861 -95.3067 47° Northeast 355 409 15,100 -1,645 Descending Kansas City Center
Mon 10:03:21 AM 38.9492 -95.2175 48° Northeast 346 398 13,500 -1,452 Descending Kansas City Center
Mon 10:04:22 AM 39.0094 -95.1331 47° Northeast 343 395 12,100 -738 Descending Kansas City Center
Mon 10:05:23 AM 39.0758 -95.0378 48° Northeast 322 371 12,000 -532 Descending Kansas City Center
Mon 10:06:26 AM 39.1289 -94.9617 48° Northeast 301 346 11,000 -1,065 Descending Kansas City Center
Mon 10:07:27 AM 39.1894 -94.8764 47° Northeast 291 335 9,800 -1,065 Descending Kansas City Center
Mon 10:08:30 AM 39.2575 -94.8539 14° North 266 306 8,800 -1,122 Descending Kansas City Center
Mon 10:09:30 AM 39.3344 -94.8339 11° North 254 292 7,500 -1,210 Descending Kansas City Center
Mon 10:10:34 AM 39.3981 -94.8136 14° North 247 284 6,300 -1,056 Descending Kansas City Center
Mon 10:11:35 AM 39.4508 -94.7667 34° Northeast 214 246 5,300 -1,180 Descending Kansas City Center
Mon 10:12:36 AM 39.4536 -94.7011 87° East 189 217 3,900 -1,113 Descending Kansas City Center
Mon 10:13:39 AM 39.4178 -94.6900 167° South 133 153 3,000 -720 Descending Kansas City Center
Mon 10:14:41 AM 39.3850 -94.7028 197° South 129 148 2,400 -726 Descending Kansas City Center
Mon 10:15:43 AM 39.3442 -94.7144 192° South 134 154 1,500 -689 Descending Kansas City Center
Mon 10:16:43 AM 39.3106 -94.7244 193° South 135 155 1,000 -500 Descending Kansas City Center

Login

Don't have an account? Register now (free) for customized features, flight alerts, and more!